sensor_id;sensor_type;location;lat;lon;timestamp;noise_LAeq;noise_LA_min;noise_LA_max;noise_LA01;noise_LA95
67320;Laerm;57665;51.436;5.978;2024-03-02T00:00:02;38.96;37.85;40.47;;
67320;Laerm;57665;51.436;5.978;2024-03-02T00:00:19;39.72;37.59;48.67;;
67320;Laerm;57665;51.436;5.978;2024-03-02T00:00:31;39.25;37.77;50.31;;
67320;Laerm;57665;51.436;5.978;2024-03-02T00:00:41;38.84;37.63;40.03;;
67320;Laerm;57665;51.436;5.978;2024-03-02T00:00:54;38.91;37.63;40.13;;
67320;Laerm;57665;51.436;5.978;2024-03-02T00:01:04;39.13;37.86;40.25;;
67320;Laerm;57665;51.436;5.978;2024-03-02T00:01:14;38.99;37.57;40.50;;
67320;Laerm;57665;51.436;5.978;2024-03-02T00:01:25;39.35;38.22;40.87;;
67320;Laerm;57665;51.436;5.978;2024-03-02T00:01:35;39.25;38.23;40.53;;
67320;Laerm;57665;51.436;5.978;2024-03-02T00:01:46;39.00;37.70;40.32;;
67320;Laerm;57665;51.436;5.978;2024-03-02T00:01:56;39.03;37.79;40.04;;
67320;Laerm;57665;51.436;5.978;2024-03-02T00:02:06;39.05;37.82;40.63;;
67320;Laerm;57665;51.436;5.978;2024-03-02T00:02:17;39.93;38.32;43.09;;
67320;Laerm;57665;51.436;5.978;2024-03-02T00:02:27;40.59;38.34;45.47;;
67320;Laerm;57665;51.436;5.978;2024-03-02T00:02:40;39.58;37.94;41.88;;
67320;Laerm;57665;51.436;5.978;2024-03-02T00:02:51;40.07;38.37;45.60;;
67320;Laerm;57665;51.436;5.978;2024-03-02T00:03:01;39.55;38.20;41.57;;
67320;Laerm;57665;51.436;5.978;2024-03-02T00:03:14;39.38;37.96;41.81;;
67320;Laerm;57665;51.436;5.978;2024-03-02T00:03:25;39.32;37.90;41.22;;
67320;Laerm;57665;51.436;5.978;2024-03-02T00:03:38;39.19;37.89;40.43;;
67320;Laerm;57665;51.436;5.978;2024-03-02T00:03:49;39.12;37.70;40.46;;
67320;Laerm;57665;51.436;5.978;2024-03-02T00:04:03;39.08;37.59;40.26;;
67320;Laerm;57665;51.436;5.978;2024-03-02T00:04:13;38.85;37.49;39.94;;
67320;Laerm;57665;51.436;5.978;2024-03-02T00:04:24;39.06;37.82;41.27;;
67320;Laerm;57665;51.436;5.978;2024-03-02T00:04:34;38.91;37.63;39.99;;
67320;Laerm;57665;51.436;5.978;2024-03-02T00:04:44;38.81;37.67;40.35;;
67320;Laerm;57665;51.436;5.978;2024-03-02T00:04:55;38.93;37.58;40.02;;
67320;Laerm;57665;51.436;5.978;2024-03-02T00:05:05;39.07;37.78;40.50;;
67320;Laerm;57665;51.436;5.978;2024-03-02T00:05:20;39.72;37.94;42.76;;
67320;Laerm;57665;51.436;5.978;2024-03-02T00:05:31;41.87;38.33;48.22;;
67320;Laerm;57665;51.436;5.978;2024-03-02T00:05:47;39.52;37.83;42.86;;
67320;Laerm;57665;51.436;5.978;2024-03-02T00:05:58;38.81;37.66;39.91;;
67320;Laerm;57665;51.436;5.978;2024-03-02T00:06:09;39.01;37.83;40.19;;
67320;Laerm;57665;51.436;5.978;2024-03-02T00:06:22;39.03;37.78;40.16;;
67320;Laerm;57665;51.436;5.978;2024-03-02T00:06:33;40.11;37.75;51.55;;
67320;Laerm;57665;51.436;5.978;2024-03-02T00:06:44;38.99;37.89;43.91;;
67320;Laerm;57665;51.436;5.978;2024-03-02T00:06:54;39.43;37.80;44.23;;
67320;Laerm;57665;51.436;5.978;2024-03-02T00:07:07;39.30;37.86;40.68;;
67320;Laerm;57665;51.436;5.978;2024-03-02T00:07:17;38.88;37.51;42.97;;
67320;Laerm;57665;51.436;5.978;2024-03-02T00:07:28;38.91;37.78;39.97;;
67320;Laerm;57665;51.436;5.978;2024-03-02T00:07:43;38.87;37.71;40.18;;
67320;Laerm;57665;51.436;5.978;2024-03-02T00:07:55;39.09;37.64;43.79;;
67320;Laerm;57665;51.436;5.978;2024-03-02T00:08:05;39.22;37.79;44.59;;
67320;Laerm;57665;51.436;5.978;2024-03-02T00:08:23;38.94;37.79;40.28;;
67320;Laerm;57665;51.436;5.978;2024-03-02T00:08:36;39.00;37.35;40.28;;
67320;Laerm;57665;51.436;5.978;2024-03-02T00:08:47;39.01;37.92;40.29;;
67320;Laerm;57665;51.436;5.978;2024-03-02T00:08:57;39.38;38.20;42.07;;
67320;Laerm;57665;51.436;5.978;2024-03-02T00:09:08;38.90;37.75;39.90;;
67320;Laerm;57665;51.436;5.978;2024-03-02T00:09:19;38.93;37.40;39.97;;
67320;Laerm;57665;51.436;5.978;2024-03-02T00:09:32;39.14;37.91;40.29;;
67320;Laerm;57665;51.436;5.978;2024-03-02T00:09:42;38.90;37.79;40.40;;
67320;Laerm;57665;51.436;5.978;2024-03-02T00:09:53;39.36;37.71;43.32;;
67320;Laerm;57665;51.436;5.978;2024-03-02T00:10:05;39.19;37.25;42.26;;
67320;Laerm;57665;51.436;5.978;2024-03-02T00:10:39;38.88;37.64;40.08;;
67320;Laerm;57665;51.436;5.978;2024-03-02T00:10:59;39.16;37.95;41.27;;
67320;Laerm;57665;51.436;5.978;2024-03-02T00:11:09;38.96;37.63;41.50;;
67320;Laerm;57665;51.436;5.978;2024-03-02T00:11:21;38.89;37.78;40.09;;
67320;Laerm;57665;51.436;5.978;2024-03-02T00:11:35;39.08;37.84;40.72;;
67320;Laerm;57665;51.436;5.978;2024-03-02T00:11:46;38.90;37.69;39.85;;
67320;Laerm;57665;51.436;5.978;2024-03-02T00:11:56;38.99;37.59;40.18;;
67320;Laerm;57665;51.436;5.978;2024-03-02T00:12:07;41.88;37.89;50.40;;
67320;Laerm;57665;51.436;5.978;2024-03-02T00:12:17;40.44;38.18;44.99;;
67320;Laerm;57665;51.436;5.978;2024-03-02T00:12:27;39.04;37.88;40.72;;
67320;Laerm;57665;51.436;5.978;2024-03-02T00:12:38;41.44;37.95;45.85;;
67320;Laerm;57665;51.436;5.978;2024-03-02T00:12:48;43.59;38.84;51.17;;
67320;Laerm;57665;51.436;5.978;2024-03-02T00:12:58;39.22;38.13;40.24;;
67320;Laerm;57665;51.436;5.978;2024-03-02T00:13:09;38.90;37.70;40.15;;
67320;Laerm;57665;51.436;5.978;2024-03-02T00:13:22;38.87;37.55;40.14;;
67320;Laerm;57665;51.436;5.978;2024-03-02T00:13:35;39.12;37.85;40.34;;
67320;Laerm;57665;51.436;5.978;2024-03-02T00:13:47;40.20;37.74;49.01;;
67320;Laerm;57665;51.436;5.978;2024-03-02T00:13:57;38.94;37.94;39.97;;
67320;Laerm;57665;51.436;5.978;2024-03-02T00:14:10;38.95;37.93;40.30;;
67320;Laerm;57665;51.436;5.978;2024-03-02T00:14:20;39.13;38.03;40.33;;
67320;Laerm;57665;51.436;5.978;2024-03-02T00:14:30;39.12;37.75;40.52;;
67320;Laerm;57665;51.436;5.978;2024-03-02T00:14:41;38.82;37.26;40.01;;
67320;Laerm;57665;51.436;5.978;2024-03-02T00:14:51;38.98;37.59;40.14;;
67320;Laerm;57665;51.436;5.978;2024-03-02T00:15:01;38.94;37.41;40.06;;
67320;Laerm;57665;51.436;5.978;2024-03-02T00:15:57;39.15;37.73;40.53;;
67320;Laerm;57665;51.436;5.978;2024-03-02T00:16:07;38.94;37.77;39.94;;
67320;Laerm;57665;51.436;5.978;2024-03-02T00:16:17;38.91;37.89;40.21;;
67320;Laerm;57665;51.436;5.978;2024-03-02T00:16:31;38.86;37.56;40.00;;
67320;Laerm;57665;51.436;5.978;2024-03-02T00:16:42;38.88;37.84;40.14;;
67320;Laerm;57665;51.436;5.978;2024-03-02T00:16:52;38.79;37.58;39.79;;
67320;Laerm;57665;51.436;5.978;2024-03-02T00:17:05;38.96;37.71;40.16;;
67320;Laerm;57665;51.436;5.978;2024-03-02T00:17:24;38.96;37.87;40.20;;
67320;Laerm;57665;51.436;5.978;2024-03-02T00:17:34;39.11;37.93;40.34;;
67320;Laerm;57665;51.436;5.978;2024-03-02T00:17:44;38.99;37.59;40.43;;
67320;Laerm;57665;51.436;5.978;2024-03-02T00:17:55;39.18;37.74;40.27;;
67320;Laerm;57665;51.436;5.978;2024-03-02T00:18:06;39.03;38.01;40.03;;
67320;Laerm;57665;51.436;5.978;2024-03-02T00:18:20;38.98;37.80;40.18;;
67320;Laerm;57665;51.436;5.978;2024-03-02T00:18:34;38.97;37.68;40.13;;
67320;Laerm;57665;51.436;5.978;2024-03-02T00:18:44;39.30;38.00;44.77;;
67320;Laerm;57665;51.436;5.978;2024-03-02T00:18:54;39.42;38.11;40.80;;
67320;Laerm;57665;51.436;5.978;2024-03-02T00:19:05;39.13;37.82;40.26;;
67320;Laerm;57665;51.436;5.978;2024-03-02T00:19:16;39.07;38.00;41.86;;
67320;Laerm;57665;51.436;5.978;2024-03-02T00:19:27;39.19;37.86;40.44;;
67320;Laerm;57665;51.436;5.978;2024-03-02T00:19:38;39.23;38.22;41.95;;
67320;Laerm;57665;51.436;5.978;2024-03-02T00:19:49;39.11;37.91;40.57;;
67320;Laerm;57665;51.436;5.978;2024-03-02T00:20:00;39.16;38.02;40.12;;
67320;Laerm;57665;51.436;5.978;2024-03-02T00:20:10;39.19;37.77;40.44;;
67320;Laerm;57665;51.436;5.978;2024-03-02T00:20:24;40.18;38.09;47.68;;
67320;Laerm;57665;51.436;5.978;2024-03-02T00:20:34;39.61;38.14;48.81;;
67320;Laerm;57665;51.436;5.978;2024-03-02T00:20:44;39.52;38.26;40.76;;
67320;Laerm;57665;51.436;5.978;2024-03-02T00:20:55;39.42;38.01;41.23;;
67320;Laerm;57665;51.436;5.978;2024-03-02T00:21:08;39.45;38.17;40.99;;
67320;Laerm;57665;51.436;5.978;2024-03-02T00:21:19;39.43;37.77;43.27;;
67320;Laerm;57665;51.436;5.978;2024-03-02T00:21:32;40.72;37.87;44.38;;
67320;Laerm;57665;51.436;5.978;2024-03-02T00:21:43;44.45;39.05;49.70;;
67320;Laerm;57665;51.436;5.978;2024-03-02T00:21:53;39.71;38.41;40.83;;
67320;Laerm;57665;51.436;5.978;2024-03-02T00:22:06;39.40;37.45;46.08;;
67320;Laerm;57665;51.436;5.978;2024-03-02T00:22:20;41.69;37.80;56.00;;
67320;Laerm;57665;51.436;5.978;2024-03-02T00:22:30;40.27;38.14;52.28;;
67320;Laerm;57665;51.436;5.978;2024-03-02T00:22:41;39.70;37.99;47.71;;
67320;Laerm;57665;51.436;5.978;2024-03-02T00:22:51;39.59;38.49;40.81;;
67320;Laerm;57665;51.436;5.978;2024-03-02T00:23:05;39.07;37.81;40.41;;
67320;Laerm;57665;51.436;5.978;2024-03-02T00:23:16;39.05;37.60;40.21;;
67320;Laerm;57665;51.436;5.978;2024-03-02T00:23:27;38.98;37.67;41.72;;
67320;Laerm;57665;51.436;5.978;2024-03-02T00:23:38;38.92;37.61;40.49;;
67320;Laerm;57665;51.436;5.978;2024-03-02T00:23:48;39.01;37.86;40.03;;
67320;Laerm;57665;51.436;5.978;2024-03-02T00:24:06;39.27;38.06;40.64;;
67320;Laerm;57665;51.436;5.978;2024-03-02T00:24:30;39.11;37.79;40.13;;
67320;Laerm;57665;51.436;5.978;2024-03-02T00:24:41;39.17;37.81;40.44;;
67320;Laerm;57665;51.436;5.978;2024-03-02T00:24:51;39.28;38.27;40.61;;
67320;Laerm;57665;51.436;5.978;2024-03-02T00:25:02;39.40;37.54;42.66;;
67320;Laerm;57665;51.436;5.978;2024-03-02T00:25:13;39.64;38.23;40.92;;
67320;Laerm;57665;51.436;5.978;2024-03-02T00:25:23;39.83;38.32;43.25;;
67320;Laerm;57665;51.436;5.978;2024-03-02T00:25:51;40.00;38.42;49.59;;
67320;Laerm;57665;51.436;5.978;2024-03-02T00:26:05;39.59;38.01;47.12;;
67320;Laerm;57665;51.436;5.978;2024-03-02T00:26:15;39.32;37.64;40.51;;
67320;Laerm;57665;51.436;5.978;2024-03-02T00:26:26;39.62;38.06;49.29;;
67320;Laerm;57665;51.436;5.978;2024-03-02T00:26:36;39.79;38.52;41.47;;
67320;Laerm;57665;51.436;5.978;2024-03-02T00:26:46;39.59;38.48;41.93;;
67320;Laerm;57665;51.436;5.978;2024-03-02T00:26:57;39.52;38.08;40.91;;
67320;Laerm;57665;51.436;5.978;2024-03-02T00:27:07;40.17;38.75;47.40;;
67320;Laerm;57665;51.436;5.978;2024-03-02T00:27:17;39.69;38.53;41.76;;
67320;Laerm;57665;51.436;5.978;2024-03-02T00:27:28;39.42;38.09;40.55;;
67320;Laerm;57665;51.436;5.978;2024-03-02T00:27:38;39.09;37.75;40.50;;
67320;Laerm;57665;51.436;5.978;2024-03-02T00:27:48;39.29;37.85;40.68;;
67320;Laerm;57665;51.436;5.978;2024-03-02T00:27:59;39.48;38.01;40.92;;
67320;Laerm;57665;51.436;5.978;2024-03-02T00:28:23;39.64;38.07;42.87;;
67320;Laerm;57665;51.436;5.978;2024-03-02T00:28:34;39.62;38.19;42.37;;
67320;Laerm;57665;51.436;5.978;2024-03-02T00:28:45;39.62;37.93;44.73;;
67320;Laerm;57665;51.436;5.978;2024-03-02T00:29:01;40.01;38.38;41.14;;
67320;Laerm;57665;51.436;5.978;2024-03-02T00:29:11;39.45;38.08;41.11;;
67320;Laerm;57665;51.436;5.978;2024-03-02T00:29:25;39.40;38.00;40.82;;
67320;Laerm;57665;51.436;5.978;2024-03-02T00:29:36;39.37;38.08;40.55;;
67320;Laerm;57665;51.436;5.978;2024-03-02T00:29:47;41.32;38.66;54.08;;
67320;Laerm;57665;51.436;5.978;2024-03-02T00:29:57;43.51;38.52;50.57;;
67320;Laerm;57665;51.436;5.978;2024-03-02T00:30:58;39.67;38.30;40.91;;
67320;Laerm;57665;51.436;5.978;2024-03-02T00:31:12;42.68;38.66;48.60;;
67320;Laerm;57665;51.436;5.978;2024-03-02T00:31:22;39.93;38.42;45.73;;
67320;Laerm;57665;51.436;5.978;2024-03-02T00:31:33;39.62;38.52;41.14;;
67320;Laerm;57665;51.436;5.978;2024-03-02T00:31:43;39.95;38.56;43.14;;
67320;Laerm;57665;51.436;5.978;2024-03-02T00:31:53;39.55;38.23;40.70;;
67320;Laerm;57665;51.436;5.978;2024-03-02T00:32:07;39.42;37.99;40.67;;
67320;Laerm;57665;51.436;5.978;2024-03-02T00:32:21;39.31;37.94;40.45;;
67320;Laerm;57665;51.436;5.978;2024-03-02T00:32:31;39.29;37.95;41.82;;
67320;Laerm;57665;51.436;5.978;2024-03-02T00:32:42;40.06;38.54;48.25;;
67320;Laerm;57665;51.436;5.978;2024-03-02T00:32:53;43.13;38.59;51.56;;
67320;Laerm;57665;51.436;5.978;2024-03-02T00:33:06;40.80;38.37;45.39;;
67320;Laerm;57665;51.436;5.978;2024-03-02T00:33:19;39.80;38.40;44.80;;
67320;Laerm;57665;51.436;5.978;2024-03-02T00:33:49;39.55;38.16;40.86;;
67320;Laerm;57665;51.436;5.978;2024-03-02T00:33:59;39.34;37.89;41.08;;
67320;Laerm;57665;51.436;5.978;2024-03-02T00:34:12;39.69;38.31;45.81;;
67320;Laerm;57665;51.436;5.978;2024-03-02T00:34:23;40.24;38.58;43.17;;
67320;Laerm;57665;51.436;5.978;2024-03-02T00:34:33;40.03;38.62;45.41;;
67320;Laerm;57665;51.436;5.978;2024-03-02T00:34:44;39.92;38.39;42.34;;
67320;Laerm;57665;51.436;5.978;2024-03-02T00:34:54;43.66;38.10;59.15;;
67320;Laerm;57665;51.436;5.978;2024-03-02T00:35:07;39.32;38.16;43.58;;
67320;Laerm;57665;51.436;5.978;2024-03-02T00:35:17;39.29;37.90;42.94;;
67320;Laerm;57665;51.436;5.978;2024-03-02T00:35:27;40.91;38.80;43.58;;
67320;Laerm;57665;51.436;5.978;2024-03-02T00:35:38;41.50;38.90;48.63;;
67320;Laerm;57665;51.436;5.978;2024-03-02T00:35:48;42.31;40.42;51.60;;
67320;Laerm;57665;51.436;5.978;2024-03-02T00:35:59;39.98;38.34;44.66;;
67320;Laerm;57665;51.436;5.978;2024-03-02T00:36:13;39.59;38.41;40.96;;
67320;Laerm;57665;51.436;5.978;2024-03-02T00:36:47;39.59;37.67;43.13;;
67320;Laerm;57665;51.436;5.978;2024-03-02T00:36:58;41.70;39.10;45.34;;
67320;Laerm;57665;51.436;5.978;2024-03-02T00:37:09;40.77;39.43;43.37;;
67320;Laerm;57665;51.436;5.978;2024-03-02T00:37:21;40.39;38.87;44.34;;
67320;Laerm;57665;51.436;5.978;2024-03-02T00:37:32;39.72;38.36;42.13;;
67320;Laerm;57665;51.436;5.978;2024-03-02T00:37:42;39.69;38.11;41.58;;
67320;Laerm;57665;51.436;5.978;2024-03-02T00:37:54;40.80;38.49;44.25;;
67320;Laerm;57665;51.436;5.978;2024-03-02T00:38:05;43.32;39.55;48.15;;
67320;Laerm;57665;51.436;5.978;2024-03-02T00:38:16;40.66;38.75;46.71;;
67320;Laerm;57665;51.436;5.978;2024-03-02T00:38:27;42.27;38.82;53.69;;
67320;Laerm;57665;51.436;5.978;2024-03-02T00:38:42;40.56;38.98;45.54;;
67320;Laerm;57665;51.436;5.978;2024-03-02T00:38:54;40.20;38.85;42.93;;
67320;Laerm;57665;51.436;5.978;2024-03-02T00:39:04;41.44;39.22;47.20;;
67320;Laerm;57665;51.436;5.978;2024-03-02T00:39:17;41.41;38.00;50.50;;
67320;Laerm;57665;51.436;5.978;2024-03-02T00:39:28;40.19;38.23;46.52;;
67320;Laerm;57665;51.436;5.978;2024-03-02T00:39:39;40.33;38.70;44.65;;
67320;Laerm;57665;51.436;5.978;2024-03-02T00:39:49;43.97;39.50;53.42;;
67320;Laerm;57665;51.436;5.978;2024-03-02T00:40:00;40.20;38.64;45.59;;
67320;Laerm;57665;51.436;5.978;2024-03-02T00:40:10;40.67;38.76;43.70;;
67320;Laerm;57665;51.436;5.978;2024-03-02T00:40:27;43.37;40.37;51.64;;
67320;Laerm;57665;51.436;5.978;2024-03-02T00:40:39;41.51;38.58;52.20;;
67320;Laerm;57665;51.436;5.978;2024-03-02T00:40:49;43.41;39.54;51.43;;
67320;Laerm;57665;51.436;5.978;2024-03-02T00:41:00;48.34;41.71;63.98;;
67320;Laerm;57665;51.436;5.978;2024-03-02T00:41:15;44.80;39.25;57.40;;
67320;Laerm;57665;51.436;5.978;2024-03-02T00:41:29;41.19;39.59;43.94;;
67320;Laerm;57665;51.436;5.978;2024-03-02T00:41:40;40.68;38.13;44.19;;
67320;Laerm;57665;51.436;5.978;2024-03-02T00:41:52;40.37;38.21;47.74;;
67320;Laerm;57665;51.436;5.978;2024-03-02T00:42:02;40.25;38.91;42.57;;
67320;Laerm;57665;51.436;5.978;2024-03-02T00:42:12;40.34;39.09;41.98;;
67320;Laerm;57665;51.436;5.978;2024-03-02T00:42:23;41.90;39.34;51.61;;
67320;Laerm;57665;51.436;5.978;2024-03-02T00:42:34;40.14;37.83;42.76;;
67320;Laerm;57665;51.436;5.978;2024-03-02T00:42:44;39.34;38.05;40.46;;
67320;Laerm;57665;51.436;5.978;2024-03-02T00:42:55;40.28;38.38;46.59;;
67320;Laerm;57665;51.436;5.978;2024-03-02T00:43:05;39.52;38.21;40.78;;
67320;Laerm;57665;51.436;5.978;2024-03-02T00:43:58;40.41;38.50;45.81;;
67320;Laerm;57665;51.436;5.978;2024-03-02T00:44:10;41.65;39.35;45.78;;
67320;Laerm;57665;51.436;5.978;2024-03-02T00:44:22;46.29;40.59;58.41;;
67320;Laerm;57665;51.436;5.978;2024-03-02T00:44:36;42.21;39.42;50.52;;
67320;Laerm;57665;51.436;5.978;2024-03-02T00:44:47;42.91;39.15;52.94;;
67320;Laerm;57665;51.436;5.978;2024-03-02T00:44:57;41.09;39.64;44.88;;
67320;Laerm;57665;51.436;5.978;2024-03-02T00:45:08;40.39;38.64;41.57;;
67320;Laerm;57665;51.436;5.978;2024-03-02T00:45:18;39.85;38.39;44.27;;
67320;Laerm;57665;51.436;5.978;2024-03-02T00:45:28;39.74;38.18;41.32;;
67320;Laerm;57665;51.436;5.978;2024-03-02T00:45:39;40.58;38.40;46.61;;
67320;Laerm;57665;51.436;5.978;2024-03-02T00:45:50;42.21;39.61;49.41;;
67320;Laerm;57665;51.436;5.978;2024-03-02T00:46:00;42.51;39.37;50.73;;
67320;Laerm;57665;51.436;5.978;2024-03-02T00:46:11;40.83;39.18;47.01;;
67320;Laerm;57665;51.436;5.978;2024-03-02T00:46:22;49.79;40.95;59.95;;
67320;Laerm;57665;51.436;5.978;2024-03-02T00:46:34;44.88;40.04;59.22;;
67320;Laerm;57665;51.436;5.978;2024-03-02T00:46:44;41.47;39.07;45.92;;
67320;Laerm;57665;51.436;5.978;2024-03-02T00:46:54;41.16;38.97;47.36;;
67320;Laerm;57665;51.436;5.978;2024-03-02T00:47:05;40.72;38.76;42.64;;
67320;Laerm;57665;51.436;5.978;2024-03-02T00:47:15;41.02;39.19;43.05;;
67320;Laerm;57665;51.436;5.978;2024-03-02T00:47:28;41.50;39.12;50.86;;
67320;Laerm;57665;51.436;5.978;2024-03-02T00:47:38;40.15;38.75;44.43;;
67320;Laerm;57665;51.436;5.978;2024-03-02T00:47:49;40.22;38.19;48.83;;
67320;Laerm;57665;51.436;5.978;2024-03-02T00:47:59;39.76;38.26;41.35;;
67320;Laerm;57665;51.436;5.978;2024-03-02T00:48:09;39.55;38.17;44.52;;
67320;Laerm;57665;51.436;5.978;2024-03-02T00:48:19;39.89;37.88;51.51;;
67320;Laerm;57665;51.436;5.978;2024-03-02T00:48:30;39.02;37.60;40.34;;
67320;Laerm;57665;51.436;5.978;2024-03-02T00:49:24;41.77;39.20;52.67;;
67320;Laerm;57665;51.436;5.978;2024-03-02T00:49:35;40.74;38.47;46.51;;
67320;Laerm;57665;51.436;5.978;2024-03-02T00:49:46;39.91;38.29;44.81;;
67320;Laerm;57665;51.436;5.978;2024-03-02T00:49:57;40.38;38.71;42.05;;
67320;Laerm;57665;51.436;5.978;2024-03-02T00:50:07;40.47;38.81;46.42;;
67320;Laerm;57665;51.436;5.978;2024-03-02T00:50:18;41.34;38.97;44.10;;
67320;Laerm;57665;51.436;5.978;2024-03-02T00:50:29;40.25;38.46;42.14;;
67320;Laerm;57665;51.436;5.978;2024-03-02T00:50:39;49.99;40.08;67.12;;
67320;Laerm;57665;51.436;5.978;2024-03-02T00:50:50;42.33;39.31;49.05;;
67320;Laerm;57665;51.436;5.978;2024-03-02T00:51:02;43.76;39.76;48.70;;
67320;Laerm;57665;51.436;5.978;2024-03-02T00:51:15;39.70;38.11;44.69;;
67320;Laerm;57665;51.436;5.978;2024-03-02T00:51:29;39.96;38.54;43.59;;
67320;Laerm;57665;51.436;5.978;2024-03-02T00:51:40;40.49;38.66;46.96;;
67320;Laerm;57665;51.436;5.978;2024-03-02T00:51:52;40.30;37.88;50.60;;
67320;Laerm;57665;51.436;5.978;2024-03-02T00:52:02;39.40;38.20;45.11;;
67320;Laerm;57665;51.436;5.978;2024-03-02T00:52:13;39.31;38.13;40.49;;
67320;Laerm;57665;51.436;5.978;2024-03-02T00:52:24;39.95;38.50;45.37;;
67320;Laerm;57665;51.436;5.978;2024-03-02T00:52:34;39.51;37.80;42.27;;
67320;Laerm;57665;51.436;5.978;2024-03-02T00:52:45;39.25;37.68;42.30;;
67320;Laerm;57665;51.436;5.978;2024-03-02T00:52:55;39.72;38.41;41.13;;
67320;Laerm;57665;51.436;5.978;2024-03-02T00:53:08;40.82;38.46;45.49;;
67320;Laerm;57665;51.436;5.978;2024-03-02T00:53:21;45.24;39.43;57.67;;
67320;Laerm;57665;51.436;5.978;2024-03-02T00:53:34;48.76;39.89;64.06;;
67320;Laerm;57665;51.436;5.978;2024-03-02T00:53:44;44.57;42.23;48.06;;
67320;Laerm;57665;51.436;5.978;2024-03-02T00:53:57;43.79;41.15;46.67;;
67320;Laerm;57665;51.436;5.978;2024-03-02T00:54:08;42.30;39.73;45.91;;
67320;Laerm;57665;51.436;5.978;2024-03-02T00:54:22;41.97;40.13;45.16;;
67320;Laerm;57665;51.436;5.978;2024-03-02T00:54:34;42.19;39.75;44.39;;
67320;Laerm;57665;51.436;5.978;2024-03-02T00:54:44;48.20;40.65;59.33;;
67320;Laerm;57665;51.436;5.978;2024-03-02T00:54:56;42.56;39.38;55.97;;
67320;Laerm;57665;51.436;5.978;2024-03-02T00:55:07;41.32;39.53;48.93;;
67320;Laerm;57665;51.436;5.978;2024-03-02T00:55:17;40.57;39.16;42.03;;
67320;Laerm;57665;51.436;5.978;2024-03-02T00:55:32;40.37;38.80;43.73;;
67320;Laerm;57665;51.436;5.978;2024-03-02T00:55:45;39.84;38.35;43.09;;
67320;Laerm;57665;51.436;5.978;2024-03-02T00:55:58;41.60;38.27;45.59;;
67320;Laerm;57665;51.436;5.978;2024-03-02T00:56:10;40.55;38.92;45.55;;
67320;Laerm;57665;51.436;5.978;2024-03-02T00:56:22;40.90;39.15;43.41;;
67320;Laerm;57665;51.436;5.978;2024-03-02T00:56:32;41.27;39.26;48.21;;
67320;Laerm;57665;51.436;5.978;2024-03-02T00:56:44;40.87;38.65;43.40;;
67320;Laerm;57665;51.436;5.978;2024-03-02T00:56:54;51.19;40.63;65.17;;
67320;Laerm;57665;51.436;5.978;2024-03-02T00:57:06;41.35;38.47;53.30;;
67320;Laerm;57665;51.436;5.978;2024-03-02T00:57:20;40.50;38.31;52.66;;
67320;Laerm;57665;51.436;5.978;2024-03-02T00:57:30;40.25;38.95;45.13;;
67320;Laerm;57665;51.436;5.978;2024-03-02T00:57:44;40.93;39.20;48.70;;
67320;Laerm;57665;51.436;5.978;2024-03-02T00:57:55;46.73;40.10;61.23;;
67320;Laerm;57665;51.436;5.978;2024-03-02T00:58:05;41.87;39.81;52.16;;
67320;Laerm;57665;51.436;5.978;2024-03-02T00:58:15;41.01;39.78;45.20;;
67320;Laerm;57665;51.436;5.978;2024-03-02T00:58:25;40.00;38.62;41.41;;
67320;Laerm;57665;51.436;5.978;2024-03-02T00:58:36;39.66;38.22;41.32;;
67320;Laerm;57665;51.436;5.978;2024-03-02T00:58:46;39.92;38.24;41.71;;
67320;Laerm;57665;51.436;5.978;2024-03-02T00:58:57;40.28;38.88;42.28;;
67320;Laerm;57665;51.436;5.978;2024-03-02T00:59:07;40.29;38.74;43.17;;
67320;Laerm;57665;51.436;5.978;2024-03-02T00:59:22;39.97;38.46;48.54;;
67320;Laerm;57665;51.436;5.978;2024-03-02T00:59:32;40.24;38.53;44.84;;
67320;Laerm;57665;51.436;5.978;2024-03-02T00:59:45;40.93;38.80;49.69;;
67320;Laerm;57665;51.436;5.978;2024-03-02T00:59:56;40.10;38.62;44.66;;
67320;Laerm;57665;51.436;5.978;2024-03-02T01:00:06;40.78;38.30;48.61;;
67320;Laerm;57665;51.436;5.978;2024-03-02T01:00:20;41.19;39.13;48.98;;
67320;Laerm;57665;51.436;5.978;2024-03-02T01:00:30;39.82;38.17;44.59;;
67320;Laerm;57665;51.436;5.978;2024-03-02T01:00:40;39.72;38.33;42.46;;
67320;Laerm;57665;51.436;5.978;2024-03-02T01:00:50;39.17;37.73;41.14;;
67320;Laerm;57665;51.436;5.978;2024-03-02T01:01:01;42.09;38.11;50.27;;
67320;Laerm;57665;51.436;5.978;2024-03-02T01:01:11;40.41;38.36;50.04;;
67320;Laerm;57665;51.436;5.978;2024-03-02T01:01:21;39.86;38.11;44.31;;
67320;Laerm;57665;51.436;5.978;2024-03-02T01:01:32;40.40;38.05;49.98;;
67320;Laerm;57665;51.436;5.978;2024-03-02T01:01:42;40.64;37.67;54.28;;
67320;Laerm;57665;51.436;5.978;2024-03-02T01:01:53;39.19;37.92;41.76;;
67320;Laerm;57665;51.436;5.978;2024-03-02T01:02:04;39.35;38.03;41.92;;
67320;Laerm;57665;51.436;5.978;2024-03-02T01:02:17;39.47;37.68;42.23;;
67320;Laerm;57665;51.436;5.978;2024-03-02T01:02:27;39.08;37.95;41.38;;
67320;Laerm;57665;51.436;5.978;2024-03-02T01:02:38;39.16;37.82;40.50;;
67320;Laerm;57665;51.436;5.978;2024-03-02T01:02:48;39.60;37.93;43.45;;
67320;Laerm;57665;51.436;5.978;2024-03-02T01:03:00;43.65;38.55;54.36;;
67320;Laerm;57665;51.436;5.978;2024-03-02T01:03:10;41.49;38.96;53.10;;
67320;Laerm;57665;51.436;5.978;2024-03-02T01:03:20;40.68;38.57;48.91;;
67320;Laerm;57665;51.436;5.978;2024-03-02T01:03:31;43.02;39.50;53.84;;
67320;Laerm;57665;51.436;5.978;2024-03-02T01:03:42;49.72;42.37;63.84;;
67320;Laerm;57665;51.436;5.978;2024-03-02T01:03:52;49.50;41.84;65.44;;
67320;Laerm;57665;51.436;5.978;2024-03-02T01:04:03;41.38;39.69;46.61;;
67320;Laerm;57665;51.436;5.978;2024-03-02T01:04:13;44.79;40.02;55.81;;
67320;Laerm;57665;51.436;5.978;2024-03-02T01:04:24;44.25;41.51;50.44;;
67320;Laerm;57665;51.436;5.978;2024-03-02T01:04:34;42.79;41.14;45.82;;
67320;Laerm;57665;51.436;5.978;2024-03-02T01:04:44;41.77;39.06;48.23;;
67320;Laerm;57665;51.436;5.978;2024-03-02T01:04:54;40.56;39.05;43.52;;
67320;Laerm;57665;51.436;5.978;2024-03-02T01:05:05;40.01;38.70;43.59;;
67320;Laerm;57665;51.436;5.978;2024-03-02T01:05:15;40.65;38.81;48.27;;
67320;Laerm;57665;51.436;5.978;2024-03-02T01:05:25;44.47;38.99;58.85;;
67320;Laerm;57665;51.436;5.978;2024-03-02T01:05:36;40.79;38.63;47.92;;
67320;Laerm;57665;51.436;5.978;2024-03-02T01:05:46;39.87;38.36;43.44;;
67320;Laerm;57665;51.436;5.978;2024-03-02T01:05:56;39.79;38.48;41.81;;
67320;Laerm;57665;51.436;5.978;2024-03-02T01:06:06;39.38;37.98;42.27;;
67320;Laerm;57665;51.436;5.978;2024-03-02T01:06:17;41.07;38.90;43.23;;
67320;Laerm;57665;51.436;5.978;2024-03-02T01:06:27;40.95;39.36;44.66;;
67320;Laerm;57665;51.436;5.978;2024-03-02T01:06:37;41.49;39.29;48.31;;
67320;Laerm;57665;51.436;5.978;2024-03-02T01:06:48;42.21;39.67;46.30;;
67320;Laerm;57665;51.436;5.978;2024-03-02T01:06:58;41.45;38.98;49.92;;
67320;Laerm;57665;51.436;5.978;2024-03-02T01:07:08;39.90;38.21;43.87;;
67320;Laerm;57665;51.436;5.978;2024-03-02T01:07:19;40.13;38.58;45.50;;
67320;Laerm;57665;51.436;5.978;2024-03-02T01:07:30;40.12;38.58;43.35;;
67320;Laerm;57665;51.436;5.978;2024-03-02T01:07:40;40.32;38.34;42.99;;
67320;Laerm;57665;51.436;5.978;2024-03-02T01:07:59;40.70;37.86;53.63;;